createdAt,value
2019-03-17T00:00:40.175Z,48.30
2019-03-17T00:03:08.868Z,48.20
2019-03-17T00:05:37.728Z,48.20
2019-03-17T00:08:06.339Z,48.30
2019-03-17T00:10:34.923Z,48.20
2019-03-17T00:13:03.533Z,48.20
2019-03-17T00:15:32.229Z,48.10
2019-03-17T00:18:00.991Z,48.10
2019-03-17T00:20:29.663Z,48.20
2019-03-17T00:22:58.631Z,48.10
2019-03-17T00:25:27.310Z,48.20
2019-03-17T00:27:55.915Z,48.00
2019-03-17T00:30:24.632Z,48.10
2019-03-17T00:32:53.411Z,48.10
2019-03-17T00:35:22.003Z,48.10
2019-03-17T00:37:50.708Z,48.10
2019-03-17T00:40:19.284Z,48.10
2019-03-17T00:42:47.888Z,48.10
2019-03-17T00:45:16.815Z,48.10
2019-03-17T00:47:45.432Z,48.20
2019-03-17T00:50:14.396Z,48.20
2019-03-17T00:52:43.578Z,48.20
2019-03-17T00:55:12.260Z,48.20
2019-03-17T00:57:40.960Z,48.20
2019-03-17T01:00:11.040Z,48.20
2019-03-17T01:02:39.683Z,48.20
2019-03-17T01:05:08.300Z,48.30
2019-03-17T01:07:37.245Z,48.20
2019-03-17T01:10:05.861Z,48.10
2019-03-17T01:12:34.522Z,48.20
2019-03-17T01:15:03.608Z,48.20
2019-03-17T01:17:32.227Z,48.10
2019-03-17T01:20:00.830Z,48.10
2019-03-17T01:22:29.599Z,48.10
2019-03-17T01:24:58.182Z,48.10
2019-03-17T01:27:26.765Z,48.00
2019-03-17T01:29:57.462Z,48.10
2019-03-17T01:32:25.716Z,48.60
2019-03-17T01:34:54.394Z,48.10
2019-03-17T01:37:25.231Z,48.00
2019-03-17T01:39:53.861Z,48.10
2019-03-17T01:42:22.848Z,48.00
2019-03-17T01:44:51.540Z,48.10
2019-03-17T01:47:20.420Z,48.00
2019-03-17T01:49:49.115Z,48.00
2019-03-17T01:52:17.756Z,48.10
2019-03-17T01:54:46.480Z,48.00
2019-03-17T01:57:15.144Z,48.10
2019-03-17T01:59:43.791Z,48.10
2019-03-17T02:02:12.774Z,48.10
2019-03-17T02:04:41.424Z,48.00
2019-03-17T02:07:10.428Z,48.00
2019-03-17T02:09:39.095Z,48.10
2019-03-17T02:12:07.736Z,48.60
2019-03-17T02:14:36.688Z,48.10
2019-03-17T02:17:05.741Z,48.10
2019-03-17T02:19:34.430Z,48.10
2019-03-17T02:22:03.160Z,48.20
2019-03-17T02:24:31.765Z,48.20
2019-03-17T02:27:00.536Z,48.20
2019-03-17T02:29:29.524Z,48.20
2019-03-17T02:31:58.150Z,48.20
2019-03-17T02:34:26.819Z,48.10
2019-03-17T02:36:55.631Z,48.10
2019-03-17T02:39:26.284Z,48.10
2019-03-17T02:41:54.855Z,48.10
2019-03-17T02:44:23.828Z,48.10
2019-03-17T02:46:52.501Z,48.10
2019-03-17T02:49:21.129Z,48.10
2019-03-17T02:51:50.220Z,48.10
2019-03-17T02:54:19.164Z,48.10
2019-03-17T02:56:47.773Z,48.00
2019-03-17T02:59:16.482Z,48.00
2019-03-17T03:01:45.195Z,48.00
2019-03-17T03:04:14.008Z,48.10
2019-03-17T03:06:42.723Z,48.10
2019-03-17T03:09:11.330Z,48.10
2019-03-17T03:11:40.106Z,48.00
2019-03-17T03:14:09.121Z,48.00
2019-03-17T03:16:37.722Z,48.10
2019-03-17T03:19:06.586Z,48.10
2019-03-17T03:21:35.236Z,48.10
2019-03-17T03:24:03.840Z,48.10
2019-03-17T03:26:32.696Z,48.10
2019-03-17T03:29:01.617Z,48.10
2019-03-17T03:31:30.332Z,48.20
2019-03-17T03:33:59.272Z,48.20
2019-03-17T03:36:28.031Z,48.10
2019-03-17T03:38:56.669Z,48.20
2019-03-17T03:41:25.335Z,48.10
2019-03-17T03:43:53.960Z,48.00
2019-03-17T03:46:22.561Z,48.10
2019-03-17T03:48:51.240Z,48.60
2019-03-17T03:51:20.230Z,48.10
2019-03-17T03:53:49.242Z,48.10
2019-03-17T03:56:18.147Z,48.10
2019-03-17T03:58:48.490Z,48.10
2019-03-17T04:01:17.157Z,48.10
2019-03-17T04:03:45.833Z,48.10
2019-03-17T04:06:25.596Z,48.10
2019-03-17T04:08:44.952Z,47.90
2019-03-17T04:11:13.696Z,48.10
2019-03-17T04:13:42.334Z,48.60
2019-03-17T04:16:11.061Z,48.00
2019-03-17T04:18:40.017Z,48.10
2019-03-17T04:21:10.964Z,48.10
2019-03-17T04:23:39.645Z,48.10
2019-03-17T04:26:08.323Z,48.10
2019-03-17T04:28:36.944Z,48.10
2019-03-17T04:31:05.575Z,48.10
2019-03-17T04:33:34.232Z,48.10
2019-03-17T04:36:03.184Z,48.10
2019-03-17T04:38:31.848Z,48.10
2019-03-17T04:41:00.516Z,48.00
2019-03-17T04:43:29.307Z,48.10
2019-03-17T04:45:58.096Z,48.10
2019-03-17T04:48:26.843Z,48.20
2019-03-17T04:50:55.806Z,48.10
2019-03-17T04:53:24.598Z,48.20
2019-03-17T04:55:53.460Z,48.20
2019-03-17T04:58:22.484Z,48.20
2019-03-17T05:00:51.471Z,48.70
2019-03-17T05:03:20.091Z,48.20
2019-03-17T05:05:49.156Z,48.10
2019-03-17T05:08:17.828Z,48.10
2019-03-17T05:10:46.469Z,48.20
2019-03-17T05:13:15.524Z,48.10
2019-03-17T05:15:44.615Z,48.10
2019-03-17T05:18:13.553Z,48.10
2019-03-17T05:20:42.423Z,48.10
2019-03-17T05:23:11.056Z,48.20
2019-03-17T05:25:40.106Z,48.10
2019-03-17T05:28:08.795Z,48.10
2019-03-17T05:30:37.392Z,48.10
2019-03-17T05:33:06.020Z,48.10
2019-03-17T05:35:34.984Z,48.10
2019-03-17T05:38:03.673Z,48.10
2019-03-17T05:40:32.288Z,48.10
2019-03-17T05:43:02.401Z,48.10
2019-03-17T05:45:31.140Z,48.00
2019-03-17T05:48:00.085Z,48.00
2019-03-17T05:50:28.712Z,48.00
2019-03-17T05:52:57.405Z,48.10
2019-03-17T05:55:26.144Z,48.00
2019-03-17T05:57:54.759Z,48.00
2019-03-17T06:00:23.939Z,48.10
2019-03-17T06:02:53.087Z,48.10
2019-03-17T06:05:21.777Z,48.10
2019-03-17T06:07:50.400Z,48.10
2019-03-17T06:10:18.998Z,48.10
2019-03-17T06:12:47.596Z,48.10
2019-03-17T06:15:16.266Z,48.20
2019-03-17T06:17:45.084Z,48.10
2019-03-17T06:20:13.771Z,48.10
2019-03-17T06:22:42.736Z,48.00
2019-03-17T06:25:13.649Z,48.00
2019-03-17T06:27:42.692Z,48.10
2019-03-17T06:30:11.663Z,48.00
2019-03-17T06:32:40.812Z,48.00
2019-03-17T06:35:09.568Z,48.10
2019-03-17T06:37:38.490Z,48.00
2019-03-17T06:40:07.721Z,48.00
2019-03-17T06:42:36.452Z,47.50
2019-03-17T06:45:05.988Z,48.00
2019-03-17T06:47:34.679Z,48.00
2019-03-17T06:50:03.382Z,48.00
2019-03-17T06:52:32.392Z,48.00
2019-03-17T06:55:01.393Z,48.00
2019-03-17T06:57:30.065Z,48.10
2019-03-17T06:59:59.037Z,48.00
2019-03-17T07:02:27.802Z,48.00
2019-03-17T07:04:56.688Z,48.00
2019-03-17T07:07:25.285Z,48.50
2019-03-17T07:09:53.904Z,47.90
2019-03-17T07:12:22.585Z,48.00
2019-03-17T07:14:51.568Z,47.90
2019-03-17T07:17:20.218Z,47.90
2019-03-17T07:19:48.812Z,47.80
2019-03-17T07:22:17.609Z,47.90
2019-03-17T07:24:46.325Z,47.90
2019-03-17T07:27:15.017Z,47.90
2019-03-17T07:29:43.793Z,47.90
2019-03-17T07:32:12.804Z,47.90
2019-03-17T07:34:41.623Z,47.80
2019-03-17T07:37:10.311Z,47.80
2019-03-17T07:39:39.429Z,47.80
2019-03-17T07:42:08.064Z,47.80
2019-03-17T07:44:36.708Z,47.70
2019-03-17T07:47:05.855Z,47.70
2019-03-17T07:49:34.534Z,47.80
2019-03-17T07:52:03.196Z,47.80
2019-03-17T07:54:34.910Z,47.70
2019-03-17T07:57:02.568Z,47.80
2019-03-17T07:59:31.284Z,47.90
2019-03-17T08:02:00.216Z,47.80
2019-03-17T08:04:28.836Z,47.80
2019-03-17T08:06:57.440Z,47.80
2019-03-17T08:09:26.533Z,47.80
2019-03-17T08:11:55.337Z,47.80
2019-03-17T08:14:24.277Z,47.70
2019-03-17T08:16:52.872Z,47.70
2019-03-17T08:19:21.463Z,47.60
2019-03-17T08:21:50.724Z,47.60
2019-03-17T08:24:19.764Z,47.60
2019-03-17T08:26:50.082Z,47.60
2019-03-17T08:29:19.288Z,47.40
2019-03-17T08:31:48.068Z,47.40
2019-03-17T08:34:16.660Z,47.40
2019-03-17T08:36:45.660Z,47.50
2019-03-17T08:39:14.504Z,47.50
2019-03-17T08:41:43.505Z,47.50
2019-03-17T08:44:12.109Z,47.50
2019-03-17T08:46:40.704Z,47.50
2019-03-17T08:49:09.436Z,47.50
2019-03-17T08:51:38.535Z,48.10
2019-03-17T08:54:07.649Z,47.90
2019-03-17T08:56:36.641Z,47.50
2019-03-17T08:59:05.532Z,47.50
2019-03-17T09:01:34.424Z,47.50
2019-03-17T09:04:03.372Z,47.60
2019-03-17T09:06:32.309Z,47.60
2019-03-17T09:09:00.922Z,47.90
2019-03-17T09:11:29.780Z,47.50
2019-03-17T09:13:58.880Z,47.50
2019-03-17T09:16:27.976Z,47.50
2019-03-17T09:18:56.596Z,47.60
2019-03-17T09:21:25.204Z,47.50
2019-03-17T09:23:54.118Z,47.60
2019-03-17T09:26:22.800Z,47.60
2019-03-17T09:28:51.846Z,47.60
2019-03-17T09:31:20.533Z,47.70
2019-03-17T09:33:49.353Z,47.70
2019-03-17T09:36:18.285Z,47.80
2019-03-17T09:38:47.785Z,48.00
2019-03-17T09:41:16.659Z,47.90
2019-03-17T09:43:45.455Z,48.00
2019-03-17T09:46:14.065Z,47.80
2019-03-17T09:48:44.941Z,47.70
2019-03-17T09:51:13.612Z,47.80
2019-03-17T09:53:42.228Z,47.70
2019-03-17T09:56:10.832Z,47.70
2019-03-17T09:58:39.544Z,47.70
2019-03-17T10:01:08.145Z,47.70
2019-03-17T10:03:36.787Z,47.60
2019-03-17T10:06:05.896Z,47.60
2019-03-17T10:08:34.519Z,47.60
2019-03-17T10:11:03.370Z,47.60
2019-03-17T10:13:31.964Z,47.60
2019-03-17T10:16:00.578Z,47.60
2019-03-17T10:18:29.435Z,47.70
2019-03-17T10:20:58.048Z,47.70
2019-03-17T10:23:26.671Z,47.70
2019-03-17T10:25:56.005Z,47.70
2019-03-17T10:28:24.620Z,47.80
2019-03-17T10:30:53.233Z,47.80
2019-03-17T10:33:22.175Z,47.80
2019-03-17T10:35:52.603Z,47.20
2019-03-17T10:38:21.364Z,47.70
2019-03-17T10:40:50.004Z,47.70
2019-03-17T10:43:18.604Z,47.70
2019-03-17T10:45:47.208Z,48.30
2019-03-17T10:48:15.816Z,47.70
2019-03-17T10:50:49.399Z,47.70
2019-03-17T10:53:14.796Z,47.60
2019-03-17T10:55:43.394Z,47.70
2019-03-17T10:58:12.148Z,47.70
2019-03-17T11:00:40.740Z,47.60
2019-03-17T11:03:11.877Z,47.60
2019-03-17T11:05:40.824Z,47.50
2019-03-17T11:08:11.551Z,47.60
2019-03-17T11:10:40.192Z,47.70
2019-03-17T11:13:08.813Z,47.70
2019-03-17T11:15:37.449Z,47.70
2019-03-17T11:18:06.115Z,47.70
2019-03-17T11:20:34.725Z,47.70
2019-03-17T11:23:03.382Z,47.70
2019-03-17T11:25:32.375Z,47.70
2019-03-17T11:28:03.827Z,47.70
2019-03-17T11:30:32.833Z,47.70
2019-03-17T11:33:01.428Z,47.70
2019-03-17T11:35:30.039Z,47.70
2019-03-17T11:37:58.640Z,47.80
2019-03-17T11:40:27.580Z,47.80
2019-03-17T11:42:56.360Z,47.70
2019-03-17T11:45:31.174Z,47.70
2019-03-17T11:48:00.879Z,47.70
2019-03-17T11:50:29.736Z,47.70
2019-03-17T11:52:58.356Z,47.70
2019-03-17T11:55:26.964Z,47.70
2019-03-17T11:57:55.665Z,47.70
2019-03-17T12:00:29.095Z,47.70
2019-03-17T12:02:59.597Z,47.70
2019-03-17T12:05:28.552Z,47.70
2019-03-17T12:07:57.541Z,47.70
2019-03-17T12:10:26.136Z,47.70
2019-03-17T12:12:54.739Z,47.70
2019-03-17T12:15:23.445Z,47.70
2019-03-17T12:17:52.071Z,47.70
2019-03-17T12:20:20.668Z,47.80
2019-03-17T12:22:49.582Z,47.80
2019-03-17T12:25:18.181Z,47.90
2019-03-17T12:27:46.779Z,48.00
2019-03-17T12:30:20.121Z,48.10
2019-03-17T12:32:49.165Z,48.10
2019-03-17T12:35:18.169Z,48.20
2019-03-17T12:37:47.132Z,48.10
2019-03-17T12:40:15.756Z,48.20
2019-03-17T12:42:44.985Z,48.00
2019-03-17T12:45:13.648Z,48.10
2019-03-17T12:47:42.587Z,47.90
2019-03-17T12:50:12.132Z,47.90
2019-03-17T12:52:40.774Z,47.90
2019-03-17T12:55:09.552Z,47.90
2019-03-17T12:57:38.175Z,47.80
2019-03-17T13:00:09.185Z,47.80
2019-03-17T13:02:37.972Z,47.80
2019-03-17T13:05:06.712Z,47.80
2019-03-17T13:07:35.640Z,47.80
2019-03-17T13:10:15.037Z,47.90
2019-03-17T13:12:34.976Z,47.80
2019-03-17T13:15:03.668Z,47.80
2019-03-17T13:17:32.344Z,47.70
2019-03-17T13:20:00.979Z,47.80
2019-03-17T13:22:30.112Z,47.70
2019-03-17T13:24:59.116Z,47.70
2019-03-17T13:27:28.080Z,47.80
2019-03-17T13:29:57.069Z,47.80
2019-03-17T13:32:25.713Z,47.90
2019-03-17T13:34:54.373Z,47.80
2019-03-17T13:37:23.020Z,47.80
2019-03-17T13:39:51.627Z,47.80
2019-03-17T13:42:20.331Z,47.80
2019-03-17T13:44:49.320Z,47.80
2019-03-17T13:47:17.988Z,47.70
2019-03-17T13:49:46.896Z,47.70
2019-03-17T13:52:15.679Z,47.70
2019-03-17T13:54:44.689Z,47.70
2019-03-17T13:57:13.369Z,47.70
2019-03-17T13:59:42.698Z,47.80
2019-03-17T14:02:11.652Z,48.30
2019-03-17T14:04:40.548Z,47.70
2019-03-17T14:07:10.282Z,47.70
2019-03-17T14:09:39.081Z,47.60
2019-03-17T14:12:08.241Z,47.60
2019-03-17T14:14:37.137Z,47.70
2019-03-17T14:17:06.124Z,47.70
2019-03-17T14:19:34.728Z,47.70
2019-03-17T14:22:03.428Z,48.30
2019-03-17T14:24:32.419Z,47.80
2019-03-17T14:27:01.098Z,47.70
2019-03-17T14:29:29.947Z,47.70
2019-03-17T14:31:58.612Z,47.70
2019-03-17T14:34:27.582Z,47.60
2019-03-17T14:36:56.540Z,47.60
2019-03-17T14:39:25.201Z,47.60
2019-03-17T14:41:54.199Z,47.60
2019-03-17T14:44:23.152Z,47.70
2019-03-17T14:46:51.782Z,47.70
2019-03-17T14:49:20.689Z,48.20
2019-03-17T14:51:49.303Z,47.60
2019-03-17T14:54:18.264Z,47.70
2019-03-17T14:56:46.936Z,47.70
2019-03-17T14:59:15.533Z,47.60
2019-03-17T15:01:44.128Z,47.60
2019-03-17T15:04:12.765Z,47.60
2019-03-17T15:06:41.419Z,47.70
2019-03-17T15:09:10.040Z,47.70
2019-03-17T15:11:38.703Z,47.70
2019-03-17T15:14:07.356Z,47.70
2019-03-17T15:16:37.013Z,47.70
2019-03-17T15:19:06.032Z,47.70
2019-03-17T15:21:34.671Z,47.70
2019-03-17T15:24:03.267Z,48.20
2019-03-17T15:26:32.808Z,48.20
2019-03-17T15:29:01.427Z,47.70
2019-03-17T15:31:30.812Z,47.60
2019-03-17T15:33:59.427Z,47.70
2019-03-17T15:36:28.030Z,48.30
2019-03-17T15:38:57.088Z,47.80
2019-03-17T15:41:25.996Z,47.70
2019-03-17T15:43:55.063Z,47.80
2019-03-17T15:46:23.661Z,47.70
2019-03-17T15:48:52.287Z,47.70
2019-03-17T15:51:21.208Z,47.70
2019-03-17T15:53:49.835Z,47.70
2019-03-17T15:56:18.810Z,47.60
2019-03-17T15:58:47.880Z,47.70
2019-03-17T16:01:16.492Z,47.70
2019-03-17T16:03:45.098Z,47.60
2019-03-17T16:06:13.887Z,47.60
2019-03-17T16:08:42.580Z,47.60
2019-03-17T16:11:11.535Z,47.60
2019-03-17T16:13:40.236Z,47.60
2019-03-17T16:16:08.900Z,47.60
2019-03-17T16:18:37.520Z,47.60
2019-03-17T16:21:08.903Z,47.50
2019-03-17T16:23:36.942Z,47.60
2019-03-17T16:26:06.144Z,47.60
2019-03-17T16:28:34.883Z,47.60
2019-03-17T16:31:03.569Z,47.70
2019-03-17T16:33:32.492Z,47.90
2019-03-17T16:36:01.121Z,47.70
2019-03-17T16:38:29.881Z,47.50
2019-03-17T16:40:58.580Z,47.70
2019-03-17T16:43:27.208Z,47.70
2019-03-17T16:45:55.989Z,47.70
2019-03-17T16:48:24.655Z,47.70
2019-03-17T16:50:53.304Z,47.70
2019-03-17T16:53:22.285Z,47.80
2019-03-17T16:55:51.186Z,47.70
2019-03-17T16:58:20.144Z,47.70
2019-03-17T17:00:49.140Z,47.80
2019-03-17T17:03:18.248Z,47.80
2019-03-17T17:05:47.243Z,47.90
2019-03-17T17:08:15.897Z,47.90
2019-03-17T17:10:49.938Z,47.80
2019-03-17T17:13:14.820Z,47.90
2019-03-17T17:15:43.729Z,47.90
2019-03-17T17:18:12.327Z,47.80
2019-03-17T17:20:41.039Z,47.80
2019-03-17T17:23:09.992Z,47.70
2019-03-17T17:25:38.985Z,47.70
2019-03-17T17:28:07.711Z,47.70
2019-03-17T17:30:36.500Z,47.90
2019-03-17T17:33:05.430Z,47.80
2019-03-17T17:35:34.447Z,47.80
2019-03-17T17:38:03.138Z,47.80
2019-03-17T17:40:32.058Z,47.90
2019-03-17T17:43:01.448Z,47.90
2019-03-17T17:45:30.108Z,47.90
2019-03-17T17:47:58.718Z,47.90
2019-03-17T17:50:27.341Z,47.90
2019-03-17T17:52:55.976Z,47.90
2019-03-17T17:55:24.960Z,47.90
2019-03-17T17:57:53.565Z,47.90
2019-03-17T18:00:22.924Z,48.00
2019-03-17T18:02:51.945Z,48.00
2019-03-17T18:05:20.560Z,48.00
2019-03-17T18:07:50.218Z,48.00
2019-03-17T18:10:18.847Z,48.00
2019-03-17T18:12:47.822Z,48.00
2019-03-17T18:15:18.441Z,48.10
2019-03-17T18:17:47.124Z,48.10
2019-03-17T18:20:15.851Z,48.20
2019-03-17T18:22:44.544Z,48.10
2019-03-17T18:25:13.876Z,48.10
2019-03-17T18:27:42.810Z,48.10
2019-03-17T18:30:13.172Z,48.20
2019-03-17T18:32:41.998Z,48.10
2019-03-17T18:35:10.790Z,48.20
2019-03-17T18:37:39.595Z,48.10
2019-03-17T18:40:10.223Z,48.20
2019-03-17T18:42:38.824Z,48.10
2019-03-17T18:45:08.368Z,48.10
2019-03-17T18:47:37.304Z,48.10
2019-03-17T18:50:06.394Z,48.20
2019-03-17T18:52:35.088Z,48.20
2019-03-17T18:55:03.742Z,48.30
2019-03-17T18:57:32.436Z,48.10
2019-03-17T19:00:04.257Z,48.10
2019-03-17T19:02:31.696Z,48.10
2019-03-17T19:05:00.381Z,48.10
2019-03-17T19:07:29.103Z,48.10
2019-03-17T19:09:58.043Z,48.10
2019-03-17T19:12:26.644Z,48.10
2019-03-17T19:14:55.476Z,48.10
2019-03-17T19:17:24.148Z,48.00
2019-03-17T19:19:53.036Z,48.20
2019-03-17T19:22:21.988Z,48.00
2019-03-17T19:24:51.039Z,48.10
2019-03-17T19:27:19.957Z,48.10
2019-03-17T19:29:48.868Z,48.10
2019-03-17T19:32:17.507Z,48.00
2019-03-17T19:34:46.101Z,48.10
2019-03-17T19:37:15.033Z,48.10
2019-03-17T19:39:43.788Z,48.20
2019-03-17T19:42:12.494Z,48.10
2019-03-17T19:44:41.178Z,48.00
2019-03-17T19:47:09.876Z,48.10
2019-03-17T19:49:38.509Z,48.10
2019-03-17T19:52:07.124Z,48.00
2019-03-17T19:54:36.426Z,48.00
2019-03-17T19:57:05.124Z,48.00
2019-03-17T19:59:33.741Z,48.20
2019-03-17T20:02:02.609Z,48.00
2019-03-17T20:04:35.210Z,48.10
2019-03-17T20:07:01.611Z,48.10
2019-03-17T20:09:30.231Z,48.10
2019-03-17T20:11:58.844Z,48.10
2019-03-17T20:14:27.520Z,48.00
2019-03-17T20:16:56.152Z,48.10
2019-03-17T20:19:25.085Z,48.00
2019-03-17T20:21:53.735Z,47.90
2019-03-17T20:24:22.516Z,47.90
2019-03-17T20:26:51.452Z,48.00
2019-03-17T20:29:20.088Z,47.90
2019-03-17T20:31:48.750Z,47.90
2019-03-17T20:34:17.500Z,47.80
2019-03-17T20:36:46.181Z,47.90
2019-03-17T20:39:15.290Z,47.80
2019-03-17T20:41:44.067Z,47.80
2019-03-17T20:44:12.691Z,47.90
2019-03-17T20:46:41.296Z,47.90
2019-03-17T20:49:10.211Z,48.00
2019-03-17T20:51:39.184Z,47.90
2019-03-17T20:54:07.798Z,48.00
2019-03-17T20:56:36.409Z,47.90
2019-03-17T20:59:05.007Z,47.90
2019-03-17T21:01:33.648Z,47.90
2019-03-17T21:04:02.249Z,48.00
2019-03-17T21:06:31.113Z,48.00
2019-03-17T21:09:00.104Z,48.00
2019-03-17T21:11:28.789Z,47.90
2019-03-17T21:13:57.820Z,47.90
2019-03-17T21:16:26.421Z,48.00
2019-03-17T21:18:55.287Z,48.00
2019-03-17T21:21:23.950Z,48.00
2019-03-17T21:23:52.941Z,48.00
2019-03-17T21:26:21.804Z,48.00
2019-03-17T21:28:50.496Z,48.00
2019-03-17T21:31:19.451Z,48.00
2019-03-17T21:33:48.081Z,48.00
2019-03-17T21:36:16.697Z,48.00
2019-03-17T21:38:45.488Z,48.10
2019-03-17T21:41:14.111Z,48.10
2019-03-17T21:43:42.784Z,48.00
2019-03-17T21:46:11.789Z,48.10
2019-03-17T21:48:40.740Z,48.10
2019-03-17T21:51:09.587Z,48.00
2019-03-17T21:53:38.288Z,48.00
2019-03-17T21:56:07.660Z,47.90
2019-03-17T21:58:36.440Z,47.90
2019-03-17T22:01:05.388Z,48.00
2019-03-17T22:03:34.285Z,48.00
2019-03-17T22:06:02.968Z,47.90
2019-03-17T22:08:32.262Z,47.90
2019-03-17T22:11:00.939Z,47.80
2019-03-17T22:13:29.608Z,47.80
2019-03-17T22:15:59.622Z,47.90
2019-03-17T22:18:29.161Z,47.80
2019-03-17T22:20:58.047Z,47.80
2019-03-17T22:23:26.765Z,47.80
2019-03-17T22:25:55.732Z,47.70
2019-03-17T22:28:24.340Z,47.80
2019-03-17T22:30:52.942Z,47.70
2019-03-17T22:33:21.742Z,47.70
2019-03-17T22:35:50.388Z,47.70
2019-03-17T22:38:19.090Z,47.70
2019-03-17T22:40:48.361Z,47.70
2019-03-17T22:43:16.960Z,47.70
2019-03-17T22:45:45.567Z,47.80
2019-03-17T22:48:14.520Z,47.80
2019-03-17T22:50:43.721Z,47.80
2019-03-17T22:53:12.326Z,47.80
2019-03-17T22:55:41.296Z,47.80
2019-03-17T22:58:09.936Z,47.90
2019-03-17T23:00:43.109Z,47.80
2019-03-17T23:03:12.761Z,47.90
2019-03-17T23:05:41.604Z,47.90
2019-03-17T23:08:10.292Z,47.90
2019-03-17T23:10:38.884Z,47.90
2019-03-17T23:13:07.868Z,47.90
2019-03-17T23:15:36.824Z,47.90
2019-03-17T23:18:05.419Z,47.90
2019-03-17T23:20:34.027Z,47.90
2019-03-17T23:23:02.615Z,47.90
2019-03-17T23:25:31.227Z,47.80
2019-03-17T23:27:59.831Z,47.90
2019-03-17T23:30:28.468Z,47.90
2019-03-17T23:32:57.210Z,47.80
2019-03-17T23:35:25.900Z,47.80
2019-03-17T23:37:54.528Z,47.90
2019-03-17T23:40:23.488Z,47.90
2019-03-17T23:42:52.476Z,47.80
2019-03-17T23:45:21.075Z,47.80
2019-03-17T23:47:49.967Z,47.80
2019-03-17T23:50:18.946Z,47.80
2019-03-17T23:52:47.645Z,47.90
2019-03-17T23:55:16.537Z,47.90
2019-03-17T23:57:45.199Z,47.80
